Terminal Aerodrome Forecast
Issued by NWS Upton, NY

Current Version | Previous Version | Text Only | Print | Product List | Glossary On
Versions: 1 2 3 4 5 6 7 8 9 10 11 12 13 14 15 16 17 18 19 20 21 22 23 24 25 26 27 28
000
FTUS41 KOKX 230100 CCA
TAFEWR
TAF COR
KEWR 230140Z 2302/2406 36018G28KT P6SM -RA SCT015 BKN025 OVC035
      TEMPO 2302/2304 4SM RA BR BKN015
     FM230400 35020G31KT 4SM -RA BR BKN015
     FM230800 36021G29KT 6SM BR VCSH BKN010
     FM231400 34019G27KT 6SM BR VCSH BKN015
     FM231800 33018G26KT P6SM BKN020 OVC035
     FM232300 32015G23KT P6SM BKN040 BKN080=

USA.gov is the U.S. government's official web portal to all federal, state and local government web resources and services.